sensor_id;sensor_type;location;lat;lon;timestamp;P1;durP1;ratioP1;P2;durP2;ratioP2
6725;SDS011;3400;48.506;11.692;2023-09-07T00:01:41;4.17;;;3.77;;
6725;SDS011;3400;48.506;11.692;2023-09-07T00:04:09;3.83;;;3.53;;
6725;SDS011;3400;48.506;11.692;2023-09-07T00:06:39;5.80;;;4.43;;
6725;SDS011;3400;48.506;11.692;2023-09-07T00:09:09;4.23;;;3.80;;
6725;SDS011;3400;48.506;11.692;2023-09-07T00:11:39;4.10;;;3.80;;
6725;SDS011;3400;48.506;11.692;2023-09-07T00:14:07;5.87;;;4.17;;
6725;SDS011;3400;48.506;11.692;2023-09-07T00:16:34;4.13;;;3.17;;
6725;SDS011;3400;48.506;11.692;2023-09-07T00:19:05;4.80;;;4.37;;
6725;SDS011;3400;48.506;11.692;2023-09-07T00:21:33;6.40;;;3.80;;
6725;SDS011;3400;48.506;11.692;2023-09-07T00:24:01;4.50;;;3.70;;
6725;SDS011;3400;48.506;11.692;2023-09-07T00:26:31;4.47;;;3.40;;
6725;SDS011;3400;48.506;11.692;2023-09-07T00:28:59;4.57;;;4.17;;
6725;SDS011;3400;48.506;11.692;2023-09-07T00:31:27;3.87;;;3.57;;
6725;SDS011;3400;48.506;11.692;2023-09-07T00:33:55;4.80;;;3.77;;
6725;SDS011;3400;48.506;11.692;2023-09-07T00:36:24;4.30;;;3.90;;
6725;SDS011;3400;48.506;11.692;2023-09-07T00:38:52;4.00;;;3.70;;
6725;SDS011;3400;48.506;11.692;2023-09-07T00:41:20;4.20;;;3.63;;
6725;SDS011;3400;48.506;11.692;2023-09-07T00:43:47;6.27;;;4.53;;
6725;SDS011;3400;48.506;11.692;2023-09-07T00:46:15;5.03;;;4.07;;
6725;SDS011;3400;48.506;11.692;2023-09-07T00:48:43;4.37;;;3.97;;
6725;SDS011;3400;48.506;11.692;2023-09-07T00:51:12;4.60;;;4.20;;
6725;SDS011;3400;48.506;11.692;2023-09-07T00:53:41;4.93;;;3.87;;
6725;SDS011;3400;48.506;11.692;2023-09-07T00:56:09;3.80;;;3.50;;
6725;SDS011;3400;48.506;11.692;2023-09-07T00:58:37;4.27;;;3.63;;
6725;SDS011;3400;48.506;11.692;2023-09-07T01:01:06;4.27;;;3.83;;
6725;SDS011;3400;48.506;11.692;2023-09-07T01:03:34;4.23;;;3.87;;
6725;SDS011;3400;48.506;11.692;2023-09-07T01:06:03;4.17;;;3.87;;
6725;SDS011;3400;48.506;11.692;2023-09-07T01:08:32;4.37;;;4.07;;
6725;SDS011;3400;48.506;11.692;2023-09-07T01:11:13;3.80;;;3.50;;
6725;SDS011;3400;48.506;11.692;2023-09-07T01:13:42;4.50;;;3.90;;
6725;SDS011;3400;48.506;11.692;2023-09-07T01:16:10;6.93;;;4.60;;
6725;SDS011;3400;48.506;11.692;2023-09-07T01:18:38;4.13;;;3.43;;
6725;SDS011;3400;48.506;11.692;2023-09-07T01:21:08;3.77;;;3.47;;
6725;SDS011;3400;48.506;11.692;2023-09-07T01:23:38;4.33;;;3.93;;
6725;SDS011;3400;48.506;11.692;2023-09-07T01:26:07;3.83;;;3.47;;
6725;SDS011;3400;48.506;11.692;2023-09-07T01:28:34;5.53;;;4.03;;
6725;SDS011;3400;48.506;11.692;2023-09-07T01:31:03;4.10;;;3.80;;
6725;SDS011;3400;48.506;11.692;2023-09-07T01:33:31;4.53;;;3.93;;
6725;SDS011;3400;48.506;11.692;2023-09-07T01:35:59;4.30;;;4.00;;
6725;SDS011;3400;48.506;11.692;2023-09-07T01:38:28;4.40;;;4.03;;
6725;SDS011;3400;48.506;11.692;2023-09-07T01:40:57;4.60;;;4.20;;
6725;SDS011;3400;48.506;11.692;2023-09-07T01:43:25;4.20;;;3.60;;
6725;SDS011;3400;48.506;11.692;2023-09-07T01:45:53;4.57;;;3.87;;
6725;SDS011;3400;48.506;11.692;2023-09-07T01:48:21;4.37;;;4.07;;
6725;SDS011;3400;48.506;11.692;2023-09-07T01:50:51;4.30;;;3.90;;
6725;SDS011;3400;48.506;11.692;2023-09-07T01:53:20;5.67;;;4.07;;
6725;SDS011;3400;48.506;11.692;2023-09-07T01:55:49;4.87;;;4.10;;
6725;SDS011;3400;48.506;11.692;2023-09-07T01:58:18;8.20;;;4.57;;
6725;SDS011;3400;48.506;11.692;2023-09-07T02:00:46;4.40;;;3.87;;
6725;SDS011;3400;48.506;11.692;2023-09-07T02:03:14;5.17;;;4.67;;
6725;SDS011;3400;48.506;11.692;2023-09-07T02:05:43;4.50;;;4.10;;
6725;SDS011;3400;48.506;11.692;2023-09-07T02:08:11;6.97;;;4.17;;
6725;SDS011;3400;48.506;11.692;2023-09-07T02:10:39;4.53;;;4.07;;
6725;SDS011;3400;48.506;11.692;2023-09-07T02:13:07;5.47;;;4.37;;
6725;SDS011;3400;48.506;11.692;2023-09-07T02:15:38;4.40;;;4.10;;
6725;SDS011;3400;48.506;11.692;2023-09-07T02:18:06;6.47;;;4.47;;
6725;SDS011;3400;48.506;11.692;2023-09-07T02:20:34;4.13;;;3.70;;
6725;SDS011;3400;48.506;11.692;2023-09-07T02:23:02;5.80;;;4.17;;
6725;SDS011;3400;48.506;11.692;2023-09-07T02:25:30;4.83;;;4.40;;
6725;SDS011;3400;48.506;11.692;2023-09-07T02:28:00;4.33;;;3.97;;
6725;SDS011;3400;48.506;11.692;2023-09-07T02:30:28;4.57;;;4.17;;
6725;SDS011;3400;48.506;11.692;2023-09-07T02:32:57;4.53;;;4.13;;
6725;SDS011;3400;48.506;11.692;2023-09-07T02:35:27;4.97;;;4.47;;
6725;SDS011;3400;48.506;11.692;2023-09-07T02:37:55;7.00;;;4.47;;
6725;SDS011;3400;48.506;11.692;2023-09-07T02:40:23;5.50;;;4.00;;
6725;SDS011;3400;48.506;11.692;2023-09-07T02:42:51;5.17;;;3.90;;
6725;SDS011;3400;48.506;11.692;2023-09-07T02:45:19;5.53;;;5.03;;
6725;SDS011;3400;48.506;11.692;2023-09-07T02:47:47;4.90;;;4.50;;
6725;SDS011;3400;48.506;11.692;2023-09-07T02:50:18;4.10;;;3.70;;
6725;SDS011;3400;48.506;11.692;2023-09-07T02:52:46;7.40;;;4.63;;
6725;SDS011;3400;48.506;11.692;2023-09-07T02:55:14;4.77;;;4.27;;
6725;SDS011;3400;48.506;11.692;2023-09-07T02:57:42;5.23;;;4.10;;
6725;SDS011;3400;48.506;11.692;2023-09-07T03:00:10;5.57;;;4.10;;
6725;SDS011;3400;48.506;11.692;2023-09-07T03:02:39;5.07;;;4.37;;
6725;SDS011;3400;48.506;11.692;2023-09-07T03:05:07;4.40;;;4.10;;
6725;SDS011;3400;48.506;11.692;2023-09-07T03:07:37;4.93;;;4.47;;
6725;SDS011;3400;48.506;11.692;2023-09-07T03:10:05;5.00;;;4.40;;
6725;SDS011;3400;48.506;11.692;2023-09-07T03:12:33;5.90;;;4.63;;
6725;SDS011;3400;48.506;11.692;2023-09-07T03:15:02;4.93;;;4.40;;
6725;SDS011;3400;48.506;11.692;2023-09-07T03:17:30;4.23;;;3.87;;
6725;SDS011;3400;48.506;11.692;2023-09-07T03:19:58;4.57;;;4.20;;
6725;SDS011;3400;48.506;11.692;2023-09-07T03:22:26;5.93;;;4.43;;
6725;SDS011;3400;48.506;11.692;2023-09-07T03:24:56;12.33;;;4.70;;
6725;SDS011;3400;48.506;11.692;2023-09-07T03:27:24;4.97;;;4.57;;
6725;SDS011;3400;48.506;11.692;2023-09-07T03:29:52;7.03;;;4.50;;
6725;SDS011;3400;48.506;11.692;2023-09-07T03:32:21;5.50;;;4.43;;
6725;SDS011;3400;48.506;11.692;2023-09-07T03:34:49;4.07;;;3.77;;
6725;SDS011;3400;48.506;11.692;2023-09-07T03:37:17;8.53;;;5.10;;
6725;SDS011;3400;48.506;11.692;2023-09-07T03:39:45;4.83;;;4.43;;
6725;SDS011;3400;48.506;11.692;2023-09-07T03:42:14;4.63;;;4.30;;
6725;SDS011;3400;48.506;11.692;2023-09-07T03:44:42;4.40;;;4.00;;
6725;SDS011;3400;48.506;11.692;2023-09-07T03:47:11;5.00;;;4.57;;
6725;SDS011;3400;48.506;11.692;2023-09-07T03:49:39;4.50;;;4.20;;
6725;SDS011;3400;48.506;11.692;2023-09-07T03:52:07;4.50;;;4.10;;
6725;SDS011;3400;48.506;11.692;2023-09-07T03:54:35;4.43;;;4.03;;
6725;SDS011;3400;48.506;11.692;2023-09-07T03:57:03;4.53;;;4.13;;
6725;SDS011;3400;48.506;11.692;2023-09-07T03:59:33;4.73;;;4.10;;
6725;SDS011;3400;48.506;11.692;2023-09-07T04:02:01;4.37;;;4.00;;
6725;SDS011;3400;48.506;11.692;2023-09-07T04:04:29;4.43;;;4.13;;
6725;SDS011;3400;48.506;11.692;2023-09-07T04:06:57;4.53;;;4.10;;
6725;SDS011;3400;48.506;11.692;2023-09-07T04:09:24;4.33;;;3.67;;
6725;SDS011;3400;48.506;11.692;2023-09-07T04:11:52;4.80;;;4.40;;
6725;SDS011;3400;48.506;11.692;2023-09-07T04:14:20;6.87;;;4.50;;
6725;SDS011;3400;48.506;11.692;2023-09-07T04:16:50;5.30;;;4.80;;
6725;SDS011;3400;48.506;11.692;2023-09-07T04:19:18;4.83;;;4.43;;
6725;SDS011;3400;48.506;11.692;2023-09-07T04:21:45;4.70;;;4.20;;
6725;SDS011;3400;48.506;11.692;2023-09-07T04:24:14;5.27;;;4.77;;
6725;SDS011;3400;48.506;11.692;2023-09-07T04:26:42;4.73;;;4.33;;
6725;SDS011;3400;48.506;11.692;2023-09-07T04:29:10;5.27;;;4.77;;
6725;SDS011;3400;48.506;11.692;2023-09-07T04:31:40;6.40;;;5.80;;
6725;SDS011;3400;48.506;11.692;2023-09-07T04:34:09;9.77;;;5.67;;
6725;SDS011;3400;48.506;11.692;2023-09-07T04:36:37;6.37;;;5.20;;
6725;SDS011;3400;48.506;11.692;2023-09-07T04:39:05;8.83;;;5.20;;
6725;SDS011;3400;48.506;11.692;2023-09-07T04:41:33;7.93;;;4.70;;
6725;SDS011;3400;48.506;11.692;2023-09-07T04:44:02;7.30;;;4.60;;
6725;SDS011;3400;48.506;11.692;2023-09-07T04:46:30;5.33;;;4.60;;
6725;SDS011;3400;48.506;11.692;2023-09-07T04:48:58;5.67;;;4.37;;
6725;SDS011;3400;48.506;11.692;2023-09-07T04:51:28;4.53;;;4.13;;
6725;SDS011;3400;48.506;11.692;2023-09-07T04:53:56;4.63;;;4.13;;
6725;SDS011;3400;48.506;11.692;2023-09-07T04:56:24;4.50;;;4.03;;
6725;SDS011;3400;48.506;11.692;2023-09-07T04:58:54;4.17;;;3.83;;
6725;SDS011;3400;48.506;11.692;2023-09-07T05:01:22;4.47;;;4.07;;
6725;SDS011;3400;48.506;11.692;2023-09-07T05:03:51;5.83;;;3.87;;
6725;SDS011;3400;48.506;11.692;2023-09-07T05:06:20;10.87;;;4.03;;
6725;SDS011;3400;48.506;11.692;2023-09-07T05:08:50;5.50;;;4.00;;
6725;SDS011;3400;48.506;11.692;2023-09-07T05:11:18;3.90;;;3.67;;
6725;SDS011;3400;48.506;11.692;2023-09-07T05:13:46;4.63;;;3.93;;
6725;SDS011;3400;48.506;11.692;2023-09-07T05:16:14;4.17;;;3.87;;
6725;SDS011;3400;48.506;11.692;2023-09-07T05:18:42;4.33;;;3.93;;
6725;SDS011;3400;48.506;11.692;2023-09-07T05:21:12;5.40;;;3.93;;
6725;SDS011;3400;48.506;11.692;2023-09-07T05:23:41;4.50;;;4.10;;
6725;SDS011;3400;48.506;11.692;2023-09-07T05:26:10;5.30;;;4.53;;
6725;SDS011;3400;48.506;11.692;2023-09-07T05:28:39;3.97;;;3.67;;
6725;SDS011;3400;48.506;11.692;2023-09-07T05:31:08;4.63;;;3.53;;
6725;SDS011;3400;48.506;11.692;2023-09-07T05:33:36;5.17;;;4.10;;
6725;SDS011;3400;48.506;11.692;2023-09-07T05:36:05;4.73;;;4.33;;
6725;SDS011;3400;48.506;11.692;2023-09-07T05:38:33;6.17;;;4.03;;
6725;SDS011;3400;48.506;11.692;2023-09-07T05:41:01;4.43;;;4.07;;
6725;SDS011;3400;48.506;11.692;2023-09-07T05:43:30;4.43;;;4.10;;
6725;SDS011;3400;48.506;11.692;2023-09-07T05:45:59;4.47;;;4.07;;
6725;SDS011;3400;48.506;11.692;2023-09-07T05:48:27;5.50;;;3.90;;
6725;SDS011;3400;48.506;11.692;2023-09-07T05:50:54;3.67;;;3.37;;
6725;SDS011;3400;48.506;11.692;2023-09-07T05:53:22;5.63;;;4.03;;
6725;SDS011;3400;48.506;11.692;2023-09-07T05:55:52;6.60;;;3.80;;
6725;SDS011;3400;48.506;11.692;2023-09-07T05:58:20;4.40;;;4.00;;
6725;SDS011;3400;48.506;11.692;2023-09-07T06:00:49;5.93;;;3.80;;
6725;SDS011;3400;48.506;11.692;2023-09-07T06:03:17;5.37;;;3.40;;
6725;SDS011;3400;48.506;11.692;2023-09-07T06:05:45;4.53;;;4.13;;
6725;SDS011;3400;48.506;11.692;2023-09-07T06:08:13;3.80;;;3.43;;
6725;SDS011;3400;48.506;11.692;2023-09-07T06:10:41;4.13;;;3.73;;
6725;SDS011;3400;48.506;11.692;2023-09-07T06:13:09;5.20;;;4.00;;
6725;SDS011;3400;48.506;11.692;2023-09-07T06:15:37;4.20;;;3.80;;
6725;SDS011;3400;48.506;11.692;2023-09-07T06:18:07;4.57;;;4.03;;
6725;SDS011;3400;48.506;11.692;2023-09-07T06:20:36;3.73;;;3.43;;
6725;SDS011;3400;48.506;11.692;2023-09-07T06:23:04;4.37;;;3.97;;
6725;SDS011;3400;48.506;11.692;2023-09-07T06:25:32;5.30;;;4.33;;
6725;SDS011;3400;48.506;11.692;2023-09-07T06:28:01;4.43;;;4.03;;
6725;SDS011;3400;48.506;11.692;2023-09-07T06:30:29;5.10;;;3.57;;
6725;SDS011;3400;48.506;11.692;2023-09-07T06:32:57;5.70;;;4.33;;
6725;SDS011;3400;48.506;11.692;2023-09-07T06:35:27;4.23;;;3.93;;
6725;SDS011;3400;48.506;11.692;2023-09-07T06:37:56;4.43;;;4.00;;
6725;SDS011;3400;48.506;11.692;2023-09-07T06:40:25;5.13;;;3.63;;
6725;SDS011;3400;48.506;11.692;2023-09-07T06:42:55;4.67;;;4.27;;
6725;SDS011;3400;48.506;11.692;2023-09-07T06:45:25;6.77;;;4.30;;
6725;SDS011;3400;48.506;11.692;2023-09-07T06:47:53;4.53;;;4.10;;
6725;SDS011;3400;48.506;11.692;2023-09-07T06:50:23;5.30;;;4.20;;
6725;SDS011;3400;48.506;11.692;2023-09-07T06:52:53;5.77;;;4.50;;
6725;SDS011;3400;48.506;11.692;2023-09-07T06:55:22;4.57;;;4.17;;
6725;SDS011;3400;48.506;11.692;2023-09-07T06:57:50;7.43;;;4.83;;
6725;SDS011;3400;48.506;11.692;2023-09-07T07:00:18;5.10;;;4.50;;
6725;SDS011;3400;48.506;11.692;2023-09-07T07:02:45;4.43;;;4.03;;
6725;SDS011;3400;48.506;11.692;2023-09-07T07:05:14;4.27;;;3.97;;
6725;SDS011;3400;48.506;11.692;2023-09-07T07:07:42;5.47;;;4.03;;
6725;SDS011;3400;48.506;11.692;2023-09-07T07:10:12;4.40;;;4.03;;
6725;SDS011;3400;48.506;11.692;2023-09-07T07:12:40;6.33;;;4.10;;
6725;SDS011;3400;48.506;11.692;2023-09-07T07:15:08;4.70;;;4.07;;
6725;SDS011;3400;48.506;11.692;2023-09-07T07:17:37;4.40;;;4.00;;
6725;SDS011;3400;48.506;11.692;2023-09-07T07:20:06;5.67;;;4.10;;
6725;SDS011;3400;48.506;11.692;2023-09-07T07:22:34;4.37;;;3.97;;
6725;SDS011;3400;48.506;11.692;2023-09-07T07:25:02;6.97;;;3.77;;
6725;SDS011;3400;48.506;11.692;2023-09-07T07:27:33;7.27;;;4.37;;
6725;SDS011;3400;48.506;11.692;2023-09-07T07:30:02;4.90;;;4.07;;
6725;SDS011;3400;48.506;11.692;2023-09-07T07:32:30;4.20;;;3.80;;
6725;SDS011;3400;48.506;11.692;2023-09-07T07:34:58;4.40;;;4.00;;
6725;SDS011;3400;48.506;11.692;2023-09-07T07:37:27;6.33;;;4.80;;
6725;SDS011;3400;48.506;11.692;2023-09-07T07:39:54;5.60;;;3.87;;
6725;SDS011;3400;48.506;11.692;2023-09-07T07:42:23;5.50;;;4.27;;
6725;SDS011;3400;48.506;11.692;2023-09-07T07:44:52;4.73;;;4.43;;
6725;SDS011;3400;48.506;11.692;2023-09-07T07:47:20;4.67;;;4.07;;
6725;SDS011;3400;48.506;11.692;2023-09-07T07:49:48;4.60;;;4.20;;
6725;SDS011;3400;48.506;11.692;2023-09-07T07:52:16;5.00;;;4.53;;
6725;SDS011;3400;48.506;11.692;2023-09-07T07:54:44;4.50;;;4.20;;
6725;SDS011;3400;48.506;11.692;2023-09-07T07:57:12;4.70;;;4.30;;
6725;SDS011;3400;48.506;11.692;2023-09-07T07:59:40;5.27;;;4.77;;
6725;SDS011;3400;48.506;11.692;2023-09-07T08:02:10;4.77;;;4.30;;
6725;SDS011;3400;48.506;11.692;2023-09-07T08:04:38;4.30;;;3.90;;
6725;SDS011;3400;48.506;11.692;2023-09-07T08:07:06;4.87;;;4.33;;
6725;SDS011;3400;48.506;11.692;2023-09-07T08:09:34;4.13;;;3.83;;
6725;SDS011;3400;48.506;11.692;2023-09-07T08:12:04;4.67;;;4.07;;
6725;SDS011;3400;48.506;11.692;2023-09-07T08:14:33;4.73;;;4.23;;
6725;SDS011;3400;48.506;11.692;2023-09-07T08:17:03;4.67;;;4.07;;
6725;SDS011;3400;48.506;11.692;2023-09-07T08:19:32;4.63;;;4.20;;
6725;SDS011;3400;48.506;11.692;2023-09-07T08:22:01;4.80;;;4.27;;
6725;SDS011;3400;48.506;11.692;2023-09-07T08:24:29;3.87;;;3.57;;
6725;SDS011;3400;48.506;11.692;2023-09-07T08:26:58;5.47;;;4.43;;
6725;SDS011;3400;48.506;11.692;2023-09-07T08:29:26;4.47;;;4.07;;
6725;SDS011;3400;48.506;11.692;2023-09-07T08:31:57;4.23;;;3.90;;
6725;SDS011;3400;48.506;11.692;2023-09-07T08:34:27;9.83;;;3.57;;
6725;SDS011;3400;48.506;11.692;2023-09-07T08:36:57;5.73;;;4.37;;
6725;SDS011;3400;48.506;11.692;2023-09-07T08:39:25;3.47;;;3.27;;
6725;SDS011;3400;48.506;11.692;2023-09-07T08:41:53;4.17;;;3.83;;
6725;SDS011;3400;48.506;11.692;2023-09-07T08:44:24;7.93;;;3.40;;
6725;SDS011;3400;48.506;11.692;2023-09-07T08:46:52;9.03;;;3.53;;
6725;SDS011;3400;48.506;11.692;2023-09-07T08:49:20;8.07;;;3.83;;
6725;SDS011;3400;48.506;11.692;2023-09-07T08:51:49;4.53;;;3.40;;
6725;SDS011;3400;48.506;11.692;2023-09-07T08:54:19;3.87;;;3.57;;
6725;SDS011;3400;48.506;11.692;2023-09-07T08:56:47;3.80;;;3.50;;
6725;SDS011;3400;48.506;11.692;2023-09-07T08:59:15;4.30;;;3.90;;
6725;SDS011;3400;48.506;11.692;2023-09-07T09:01:43;4.23;;;2.80;;
6725;SDS011;3400;48.506;11.692;2023-09-07T09:04:11;4.60;;;3.53;;
6725;SDS011;3400;48.506;11.692;2023-09-07T09:06:38;6.07;;;3.07;;
6725;SDS011;3400;48.506;11.692;2023-09-07T09:09:07;7.10;;;3.30;;
6725;SDS011;3400;48.506;11.692;2023-09-07T09:11:36;5.13;;;3.20;;
6725;SDS011;3400;48.506;11.692;2023-09-07T09:14:05;5.97;;;3.20;;
6725;SDS011;3400;48.506;11.692;2023-09-07T09:16:33;3.87;;;3.57;;
6725;SDS011;3400;48.506;11.692;2023-09-07T09:19:01;3.40;;;3.20;;
6725;SDS011;3400;48.506;11.692;2023-09-07T09:21:29;3.50;;;3.20;;
6725;SDS011;3400;48.506;11.692;2023-09-07T09:23:57;3.47;;;3.27;;
6725;SDS011;3400;48.506;11.692;2023-09-07T09:26:26;8.40;;;3.23;;
6725;SDS011;3400;48.506;11.692;2023-09-07T09:28:56;6.50;;;3.30;;
6725;SDS011;3400;48.506;11.692;2023-09-07T09:31:25;4.37;;;2.93;;
6725;SDS011;3400;48.506;11.692;2023-09-07T09:33:52;4.53;;;3.33;;
6725;SDS011;3400;48.506;11.692;2023-09-07T09:36:20;6.05;;;3.03;;
6725;SDS011;3400;48.506;11.692;2023-09-07T09:38:49;3.77;;;3.47;;
6725;SDS011;3400;48.506;11.692;2023-09-07T09:41:18;3.67;;;3.20;;
6725;SDS011;3400;48.506;11.692;2023-09-07T09:43:47;4.13;;;2.67;;
6725;SDS011;3400;48.506;11.692;2023-09-07T09:46:18;3.43;;;3.13;;
6725;SDS011;3400;48.506;11.692;2023-09-07T09:48:46;5.30;;;2.97;;
6725;SDS011;3400;48.506;11.692;2023-09-07T09:51:15;3.30;;;3.00;;
6725;SDS011;3400;48.506;11.692;2023-09-07T09:53:43;3.00;;;2.65;;
6725;SDS011;3400;48.506;11.692;2023-09-07T09:56:12;3.55;;;3.25;;
6725;SDS011;3400;48.506;11.692;2023-09-07T09:58:40;3.67;;;2.72;;
6725;SDS011;3400;48.506;11.692;2023-09-07T10:01:08;2.90;;;2.70;;
6725;SDS011;3400;48.506;11.692;2023-09-07T10:03:41;3.42;;;3.13;;
6725;SDS011;3400;48.506;11.692;2023-09-07T10:06:11;3.38;;;3.08;;
6725;SDS011;3400;48.506;11.692;2023-09-07T10:08:40;3.20;;;2.90;;
6725;SDS011;3400;48.506;11.692;2023-09-07T10:11:18;3.20;;;3.00;;
6725;SDS011;3400;48.506;11.692;2023-09-07T10:13:56;7.45;;;2.97;;
6725;SDS011;3400;48.506;11.692;2023-09-07T10:16:24;3.13;;;2.83;;
6725;SDS011;3400;48.506;11.692;2023-09-07T10:18:55;3.10;;;2.90;;
6725;SDS011;3400;48.506;11.692;2023-09-07T10:21:24;3.67;;;3.38;;
6725;SDS011;3400;48.506;11.692;2023-09-07T10:23:52;3.40;;;3.10;;
6725;SDS011;3400;48.506;11.692;2023-09-07T10:26:20;3.40;;;3.10;;
6725;SDS011;3400;48.506;11.692;2023-09-07T10:28:58;4.13;;;3.00;;
6725;SDS011;3400;48.506;11.692;2023-09-07T10:31:26;4.53;;;3.00;;
6725;SDS011;3400;48.506;11.692;2023-09-07T10:34:07;3.78;;;3.47;;
6725;SDS011;3400;48.506;11.692;2023-09-07T10:36:35;3.40;;;3.13;;
6725;SDS011;3400;48.506;11.692;2023-09-07T10:39:03;6.72;;;3.33;;
6725;SDS011;3400;48.506;11.692;2023-09-07T10:41:41;3.13;;;2.92;;
6725;SDS011;3400;48.506;11.692;2023-09-07T10:44:09;5.55;;;2.97;;
6725;SDS011;3400;48.506;11.692;2023-09-07T10:46:38;3.53;;;3.22;;
6725;SDS011;3400;48.506;11.692;2023-09-07T10:49:08;6.97;;;2.97;;
6725;SDS011;3400;48.506;11.692;2023-09-07T10:51:40;6.40;;;3.28;;
6725;SDS011;3400;48.506;11.692;2023-09-07T10:54:14;2.95;;;2.75;;
6725;SDS011;3400;48.506;11.692;2023-09-07T10:56:45;2.97;;;2.85;;
6725;SDS011;3400;48.506;11.692;2023-09-07T10:59:15;4.13;;;2.88;;
6725;SDS011;3400;48.506;11.692;2023-09-07T11:01:44;4.53;;;3.00;;
6725;SDS011;3400;48.506;11.692;2023-09-07T11:04:16;4.78;;;2.85;;
6725;SDS011;3400;48.506;11.692;2023-09-07T11:06:46;3.20;;;2.80;;
6725;SDS011;3400;48.506;11.692;2023-09-07T11:09:15;4.60;;;3.08;;
6725;SDS011;3400;48.506;11.692;2023-09-07T11:11:46;3.15;;;2.85;;
6725;SDS011;3400;48.506;11.692;2023-09-07T11:14:14;2.88;;;2.60;;
6725;SDS011;3400;48.506;11.692;2023-09-07T11:16:42;3.78;;;3.03;;
6725;SDS011;3400;48.506;11.692;2023-09-07T11:19:10;5.70;;;3.10;;
6725;SDS011;3400;48.506;11.692;2023-09-07T11:21:39;5.70;;;2.97;;
6725;SDS011;3400;48.506;11.692;2023-09-07T11:24:08;6.72;;;3.05;;
6725;SDS011;3400;48.506;11.692;2023-09-07T11:26:42;3.47;;;3.00;;
6725;SDS011;3400;48.506;11.692;2023-09-07T11:29:13;4.45;;;2.47;;
6725;SDS011;3400;48.506;11.692;2023-09-07T11:31:41;2.80;;;2.60;;
6725;SDS011;3400;48.506;11.692;2023-09-07T11:34:09;2.95;;;2.63;;
6725;SDS011;3400;48.506;11.692;2023-09-07T11:36:40;3.83;;;3.42;;
6725;SDS011;3400;48.506;11.692;2023-09-07T11:39:08;3.13;;;2.83;;
6725;SDS011;3400;48.506;11.692;2023-09-07T11:41:39;5.32;;;2.78;;
6725;SDS011;3400;48.506;11.692;2023-09-07T11:44:07;3.60;;;2.75;;
6725;SDS011;3400;48.506;11.692;2023-09-07T11:46:35;3.47;;;2.85;;
6725;SDS011;3400;48.506;11.692;2023-09-07T11:49:03;2.75;;;2.55;;
6725;SDS011;3400;48.506;11.692;2023-09-07T11:51:34;2.88;;;2.63;;
6725;SDS011;3400;48.506;11.692;2023-09-07T11:54:03;3.45;;;2.70;;
6725;SDS011;3400;48.506;11.692;2023-09-07T11:56:31;2.80;;;2.60;;
6725;SDS011;3400;48.506;11.692;2023-09-07T11:59:03;2.58;;;2.38;;
6725;SDS011;3400;48.506;11.692;2023-09-07T12:01:31;3.00;;;2.65;;
6725;SDS011;3400;48.506;11.692;2023-09-07T12:03:59;3.70;;;2.92;;
6725;SDS011;3400;48.506;11.692;2023-09-07T12:06:30;2.63;;;2.42;;
6725;SDS011;3400;48.506;11.692;2023-09-07T12:08:58;4.80;;;2.60;;
6725;SDS011;3400;48.506;11.692;2023-09-07T12:11:28;2.88;;;2.67;;
6725;SDS011;3400;48.506;11.692;2023-09-07T12:13:56;4.25;;;2.97;;
6725;SDS011;3400;48.506;11.692;2023-09-07T12:16:24;3.30;;;2.90;;
6725;SDS011;3400;48.506;11.692;2023-09-07T12:18:53;3.47;;;3.17;;
6725;SDS011;3400;48.506;11.692;2023-09-07T12:21:20;3.22;;;2.80;;
6725;SDS011;3400;48.506;11.692;2023-09-07T12:23:48;3.38;;;2.58;;
6725;SDS011;3400;48.506;11.692;2023-09-07T12:26:16;3.42;;;3.13;;
6725;SDS011;3400;48.506;11.692;2023-09-07T12:28:47;3.20;;;2.40;;
6725;SDS011;3400;48.506;11.692;2023-09-07T12:31:15;3.20;;;2.90;;
6725;SDS011;3400;48.506;11.692;2023-09-07T12:33:43;3.00;;;2.80;;
6725;SDS011;3400;48.506;11.692;2023-09-07T12:36:11;4.95;;;2.90;;
6725;SDS011;3400;48.506;11.692;2023-09-07T12:38:39;3.97;;;2.50;;
6725;SDS011;3400;48.506;11.692;2023-09-07T12:41:07;3.17;;;2.88;;
6725;SDS011;3400;48.506;11.692;2023-09-07T12:43:35;3.47;;;2.72;;
6725;SDS011;3400;48.506;11.692;2023-09-07T12:46:05;2.90;;;2.70;;
6725;SDS011;3400;48.506;11.692;2023-09-07T12:48:33;6.20;;;2.95;;
6725;SDS011;3400;48.506;11.692;2023-09-07T12:51:00;3.47;;;2.70;;
6725;SDS011;3400;48.506;11.692;2023-09-07T12:53:28;4.25;;;3.08;;
6725;SDS011;3400;48.506;11.692;2023-09-07T12:55:56;3.38;;;2.92;;
6725;SDS011;3400;48.506;11.692;2023-09-07T12:58:24;36.63;;;4.30;;
6725;SDS011;3400;48.506;11.692;2023-09-07T13:00:52;2.90;;;2.70;;
6725;SDS011;3400;48.506;11.692;2023-09-07T13:03:21;3.05;;;2.72;;
6725;SDS011;3400;48.506;11.692;2023-09-07T13:05:49;3.72;;;2.60;;
6725;SDS011;3400;48.506;11.692;2023-09-07T13:08:17;4.60;;;2.80;;
6725;SDS011;3400;48.506;11.692;2023-09-07T13:10:46;2.78;;;2.60;;
6725;SDS011;3400;48.506;11.692;2023-09-07T13:13:14;3.00;;;2.70;;
6725;SDS011;3400;48.506;11.692;2023-09-07T13:15:42;3.78;;;2.90;;
6725;SDS011;3400;48.506;11.692;2023-09-07T13:18:10;2.92;;;2.72;;
6725;SDS011;3400;48.506;11.692;2023-09-07T13:20:39;3.15;;;2.95;;
6725;SDS011;3400;48.506;11.692;2023-09-07T13:23:07;3.33;;;2.90;;
6725;SDS011;3400;48.506;11.692;2023-09-07T13:25:35;4.38;;;3.05;;
6725;SDS011;3400;48.506;11.692;2023-09-07T13:28:04;3.25;;;2.95;;
6725;SDS011;3400;48.506;11.692;2023-09-07T13:30:32;2.60;;;2.40;;
6725;SDS011;3400;48.506;11.692;2023-09-07T13:32:59;2.90;;;2.53;;
6725;SDS011;3400;48.506;11.692;2023-09-07T13:35:27;2.83;;;2.63;;
6725;SDS011;3400;48.506;11.692;2023-09-07T13:37:57;3.10;;;2.90;;
6725;SDS011;3400;48.506;11.692;2023-09-07T13:40:24;4.47;;;3.00;;
6725;SDS011;3400;48.506;11.692;2023-09-07T13:42:55;3.13;;;2.80;;
6725;SDS011;3400;48.506;11.692;2023-09-07T13:45:23;3.10;;;2.90;;
6725;SDS011;3400;48.506;11.692;2023-09-07T13:47:51;3.30;;;3.00;;
6725;SDS011;3400;48.506;11.692;2023-09-07T13:50:18;3.08;;;2.88;;
6725;SDS011;3400;48.506;11.692;2023-09-07T13:52:48;3.00;;;2.80;;
6725;SDS011;3400;48.506;11.692;2023-09-07T13:55:17;3.08;;;2.67;;
6725;SDS011;3400;48.506;11.692;2023-09-07T13:57:45;3.45;;;2.67;;
6725;SDS011;3400;48.506;11.692;2023-09-07T14:00:13;4.78;;;3.25;;
6725;SDS011;3400;48.506;11.692;2023-09-07T14:02:41;4.05;;;3.05;;
6725;SDS011;3400;48.506;11.692;2023-09-07T14:05:09;3.30;;;2.63;;
6725;SDS011;3400;48.506;11.692;2023-09-07T14:07:38;6.38;;;3.13;;
6725;SDS011;3400;48.506;11.692;2023-09-07T14:10:06;4.38;;;3.08;;
6725;SDS011;3400;48.506;11.692;2023-09-07T14:12:36;5.00;;;2.88;;
6725;SDS011;3400;48.506;11.692;2023-09-07T14:15:04;6.07;;;3.33;;
6725;SDS011;3400;48.506;11.692;2023-09-07T14:17:32;3.33;;;2.70;;
6725;SDS011;3400;48.506;11.692;2023-09-07T14:20:00;3.80;;;2.85;;
6725;SDS011;3400;48.506;11.692;2023-09-07T14:22:28;3.53;;;2.92;;
6725;SDS011;3400;48.506;11.692;2023-09-07T14:24:56;3.53;;;2.90;;
6725;SDS011;3400;48.506;11.692;2023-09-07T14:27:24;4.05;;;2.83;;
6725;SDS011;3400;48.506;11.692;2023-09-07T14:29:53;3.10;;;2.90;;
6725;SDS011;3400;48.506;11.692;2023-09-07T14:32:21;3.10;;;2.58;;
6725;SDS011;3400;48.506;11.692;2023-09-07T14:34:49;3.17;;;2.88;;
6725;SDS011;3400;48.506;11.692;2023-09-07T14:37:17;3.40;;;2.67;;
6725;SDS011;3400;48.506;11.692;2023-09-07T14:39:44;3.63;;;3.20;;
6725;SDS011;3400;48.506;11.692;2023-09-07T14:42:15;2.70;;;2.50;;
6725;SDS011;3400;48.506;11.692;2023-09-07T14:44:45;3.28;;;2.72;;
6725;SDS011;3400;48.506;11.692;2023-09-07T14:47:14;3.40;;;3.10;;
6725;SDS011;3400;48.506;11.692;2023-09-07T14:49:42;3.10;;;2.88;;
6725;SDS011;3400;48.506;11.692;2023-09-07T14:52:10;8.15;;;2.75;;
6725;SDS011;3400;48.506;11.692;2023-09-07T14:54:38;2.95;;;2.75;;
6725;SDS011;3400;48.506;11.692;2023-09-07T14:57:07;3.17;;;2.80;;
6725;SDS011;3400;48.506;11.692;2023-09-07T14:59:34;3.80;;;2.70;;
6725;SDS011;3400;48.506;11.692;2023-09-07T15:02:05;3.67;;;2.85;;
6725;SDS011;3400;48.506;11.692;2023-09-07T15:04:34;3.38;;;2.63;;
6725;SDS011;3400;48.506;11.692;2023-09-07T15:07:02;4.05;;;2.95;;
6725;SDS011;3400;48.506;11.692;2023-09-07T15:09:30;2.80;;;2.60;;